Time;durP1;ratioP1;P1;durP2;ratioP2;P2;SDS_P1;SDS_P2;PMS_P1;PMS_P2;Temp;Humidity;BMP_temperature;BMP_pressure;BME280_temperature;BME280_humidity;BME280_pressure;Samples;Min_cycle;Max_cycle;Signal;HPM_P1;HPM_P2
2022/05/01 00:00:27;;;;;;;;;;;3.60;99.90;;;;;;4922767;29;19923;-73
2022/05/01 00:02:53;;;;;;;;;;;3.50;99.90;;;;;;4919638;29;20032;-73
2022/05/01 00:05:19;;;;;;;;;;;3.40;99.90;;;;;;4919813;29;20014;-73
2022/05/01 00:07:45;;;;;;;;;;;3.30;99.90;;;;;;4903488;29;20013;-73
2022/05/01 00:10:11;;;;;;;;;;;3.30;99.90;;;;;;4907006;29;19918;-73
2022/05/01 00:12:36;;;;;;;;;;;3.20;99.90;;;;;;4919999;29;19929;-73
2022/05/01 00:15:03;;;;;;;;;;;3.20;99.90;;;;;;4901944;29;19919;-74
2022/05/01 00:17:29;;;;;;;;;;;3.20;99.90;;;;;;4919940;29;19919;-73
2022/05/01 00:19:55;;;;;;;;;;;3.10;99.90;;;;;;4903878;29;19919;-73
2022/05/01 00:22:21;;;;;;;;;;;3.10;99.90;;;;;;4919592;29;19930;-73
2022/05/01 00:24:46;;;;;;;;;;;3.10;99.90;;;;;;4928516;29;19926;-73
2022/05/01 00:27:12;;;;;;;;;;;3.00;99.90;;;;;;4929175;29;19923;-73
2022/05/01 00:29:38;;;;;;;;;;;3.00;99.90;;;;;;4919161;29;20286;-73
2022/05/01 00:32:05;;;;;;;;;;;2.90;99.90;;;;;;4903397;29;19942;-73
2022/05/01 00:37:15;;;;;;;;;;;2.90;99.90;;;;;;4919044;29;19926;-73
2022/05/01 00:39:40;;;;;;;;;;;2.80;99.90;;;;;;4918710;29;19923;-73
2022/05/01 00:42:06;;;;;;;;;;;2.80;99.90;;;;;;4935676;29;19929;-73
2022/05/01 00:44:31;;;;;;;;;;;2.90;99.90;;;;;;4919405;29;19999;-73
2022/05/01 00:46:59;;;;;;;;;;;2.80;99.90;;;;;;4921414;29;19927;-73
2022/05/01 00:49:26;;;;;;;;;;;2.80;99.90;;;;;;4919390;29;20363;-73
2022/05/01 00:51:51;;;;;;;;;;;2.80;99.90;;;;;;4918985;29;19978;-73
2022/05/01 00:54:18;;;;;;;;;;;2.80;99.90;;;;;;4919128;29;20021;-71
2022/05/01 00:56:45;;;;;;;;;;;2.70;99.90;;;;;;4918263;29;19923;-71
2022/05/01 00:59:11;;;;;;;;;;;2.70;99.90;;;;;;4919876;29;19923;-72
2022/05/01 01:01:37;;;;;;;;;;;2.60;99.90;;;;;;4918373;29;20286;-73
2022/05/01 01:04:03;;;;;;;;;;;2.60;99.90;;;;;;4918925;29;19929;-73
2022/05/01 01:06:29;;;;;;;;;;;2.60;99.90;;;;;;4918768;29;20025;-73
2022/05/01 01:08:55;;;;;;;;;;;2.60;99.90;;;;;;4920740;29;19919;-71
2022/05/01 01:11:21;;;;;;;;;;;2.60;99.90;;;;;;4917918;29;19926;-72
2022/05/01 01:13:47;;;;;;;;;;;2.60;99.90;;;;;;4918734;29;19974;-73
2022/05/01 01:16:12;;;;;;;;;;;2.60;99.90;;;;;;4902772;29;19929;-73
2022/05/01 01:18:39;;;;;;;;;;;2.60;99.90;;;;;;4918996;29;19922;-73
2022/05/01 01:21:11;;;;;;;;;;;2.50;99.90;;;;;;4918773;29;20009;-73
2022/05/01 01:23:39;;;;;;;;;;;2.60;99.90;;;;;;4918567;29;19922;-73
2022/05/01 01:26:05;;;;;;;;;;;2.50;99.90;;;;;;4920406;29;20378;-73
2022/05/01 01:28:32;;;;;;;;;;;2.50;99.90;;;;;;4914547;29;19987;-71
2022/05/01 01:33:43;;;;;;;;;;;2.40;99.90;;;;;;4904889;29;19970;-73
2022/05/01 01:36:09;;;;;;;;;;;2.40;99.90;;;;;;4918790;29;19958;-73
2022/05/01 01:38:35;;;;;;;;;;;2.40;99.90;;;;;;4918489;29;20371;-73
2022/05/01 01:41:05;;;;;;;;;;;2.40;99.90;;;;;;4919108;29;19934;-73
2022/05/01 01:43:31;;;;;;;;;;;2.40;99.90;;;;;;4902657;29;19923;-73
2022/05/01 01:45:57;;;;;;;;;;;2.40;99.90;;;;;;4918323;29;19919;-73
2022/05/01 01:48:23;;;;;;;;;;;2.40;99.90;;;;;;4894667;29;20488;-73
2022/05/01 01:50:56;;;;;;;;;;;2.40;99.90;;;;;;4918125;29;19923;-73
2022/05/01 01:53:22;;;;;;;;;;;2.40;99.90;;;;;;4918224;29;20254;-73
2022/05/01 01:55:47;;;;;;;;;;;2.30;99.90;;;;;;4919812;29;19929;-73
2022/05/01 01:58:13;;;;;;;;;;;2.30;99.90;;;;;;4918046;29;19946;-73
2022/05/01 02:00:38;;;;;;;;;;;2.20;99.90;;;;;;4901014;29;19997;-73
2022/05/01 02:03:04;;;;;;;;;;;2.20;99.90;;;;;;4916300;29;20450;-73
2022/05/01 02:05:31;;;;;;;;;;;2.20;99.90;;;;;;4916647;29;19919;-73
2022/05/01 02:07:56;;;;;;;;;;;2.10;99.90;;;;;;4932706;29;19974;-73
2022/05/01 02:10:22;;;;;;;;;;;2.10;99.90;;;;;;4917958;29;19927;-73
2022/05/01 02:12:48;;;;;;;;;;;2.10;99.90;;;;;;4933926;29;20363;-73
2022/05/01 02:15:14;;;;;;;;;;;2.00;99.90;;;;;;4917972;29;20327;-73
2022/05/01 02:17:40;;;;;;;;;;;2.00;99.90;;;;;;4920158;29;20362;-73
2022/05/01 02:20:07;;;;;;;;;;;2.00;99.90;;;;;;4917333;29;20017;-73
2022/05/01 02:22:32;;;;;;;;;;;2.00;99.90;;;;;;4917586;29;19969;-73
2022/05/01 02:24:58;;;;;;;;;;;1.90;99.90;;;;;;4917331;29;20010;-73
2022/05/01 02:27:24;;;;;;;;;;;1.90;99.90;;;;;;4917370;29;20055;-73
2022/05/01 02:29:49;;;;;;;;;;;1.90;99.90;;;;;;4917555;29;19974;-73
2022/05/01 02:32:15;;;;;;;;;;;1.90;99.90;;;;;;4934579;29;19919;-73
2022/05/01 02:34:40;;;;;;;;;;;1.80;99.90;;;;;;4917420;29;20405;-72
2022/05/01 02:37:06;;;;;;;;;;;1.80;99.90;;;;;;4904131;29;20301;-72
2022/05/01 02:39:35;;;;;;;;;;;1.80;99.90;;;;;;4902304;29;19918;-73
2022/05/01 02:42:00;;;;;;;;;;;1.80;99.90;;;;;;4916839;29;19962;-73
2022/05/01 02:44:26;;;;;;;;;;;1.70;99.90;;;;;;4917482;29;19957;-73
2022/05/01 02:46:51;;;;;;;;;;;1.70;99.90;;;;;;4917189;29;19922;-73
2022/05/01 02:49:17;;;;;;;;;;;1.70;99.90;;;;;;4917309;29;19926;-73
2022/05/01 02:51:43;;;;;;;;;;;1.70;99.90;;;;;;4917135;29;20023;-73
2022/05/01 02:54:08;;;;;;;;;;;1.70;99.90;;;;;;4917353;29;19930;-73
2022/05/01 02:56:34;;;;;;;;;;;1.60;99.90;;;;;;4918729;29;19925;-73
2022/05/01 02:59:00;;;;;;;;;;;1.70;99.90;;;;;;4917817;29;20021;-73
2022/05/01 03:01:25;;;;;;;;;;;1.60;99.90;;;;;;4918362;29;19977;-73
2022/05/01 03:03:51;;;;;;;;;;;1.60;99.90;;;;;;4917819;29;19930;-73
2022/05/01 03:06:17;;;;;;;;;;;1.60;99.90;;;;;;4917067;29;20021;-73
2022/05/01 03:08:42;;;;;;;;;;;1.70;99.90;;;;;;4918852;29;19927;-73
2022/05/01 03:11:08;;;;;;;;;;;1.70;99.90;;;;;;4919861;29;19922;-73
2022/05/01 03:13:34;;;;;;;;;;;1.70;99.90;;;;;;4920118;29;19946;-73
2022/05/01 03:16:00;;;;;;;;;;;1.70;99.90;;;;;;4921878;29;19989;-73
2022/05/01 03:23:54;;;;;;;;;;;1.70;99.90;;;;;;4917296;29;20070;-72
2022/05/01 03:26:19;;;;;;;;;;;1.70;99.90;;;;;;4917168;29;20017;-73
2022/05/01 03:28:45;;;;;;;;;;;1.60;99.90;;;;;;4886079;29;19926;-73
2022/05/01 03:31:11;;;;;;;;;;;1.60;99.90;;;;;;4917366;29;19926;-73
2022/05/01 03:33:37;;;;;;;;;;;1.60;99.90;;;;;;4918495;29;19934;-73
2022/05/01 03:36:06;;;;;;;;;;;1.60;99.90;;;;;;4917431;29;19915;-73
2022/05/01 03:38:36;;;;;;;;;;;1.60;99.90;;;;;;4917491;29;20282;-73
2022/05/01 03:41:04;;;;;;;;;;;1.50;99.90;;;;;;4917252;29;19923;-73
2022/05/01 03:43:31;;;;;;;;;;;1.50;99.90;;;;;;4916923;29;19923;-73
2022/05/01 03:45:57;;;;;;;;;;;1.50;99.90;;;;;;4916549;29;19930;-73
2022/05/01 03:48:22;;;;;;;;;;;1.50;99.90;;;;;;4900836;29;19926;-73
2022/05/01 03:50:51;;;;;;;;;;;1.50;99.90;;;;;;4900726;29;19923;-73
2022/05/01 03:53:16;;;;;;;;;;;1.50;99.90;;;;;;4903424;29;19923;-73
2022/05/01 03:55:42;;;;;;;;;;;1.50;99.90;;;;;;4916601;29;19923;-73
2022/05/01 03:58:07;;;;;;;;;;;1.50;99.90;;;;;;4915950;29;20009;-73
2022/05/01 04:00:33;;;;;;;;;;;1.50;99.90;;;;;;4914511;29;19929;-73
2022/05/01 04:02:58;;;;;;;;;;;1.40;99.90;;;;;;4916179;29;19923;-73
2022/05/01 04:05:24;;;;;;;;;;;1.40;99.90;;;;;;4915663;29;20442;-73
2022/05/01 04:07:50;;;;;;;;;;;1.30;99.90;;;;;;4915775;29;19927;-73
2022/05/01 04:10:15;;;;;;;;;;;1.30;99.90;;;;;;4917139;29;20398;-73
2022/05/01 04:12:42;;;;;;;;;;;1.30;99.90;;;;;;4916555;29;20334;-73
2022/05/01 04:15:09;;;;;;;;;;;1.30;99.90;;;;;;4918175;29;20433;-73
2022/05/01 04:17:41;;;;;;;;;;;1.30;99.90;;;;;;4920184;29;20275;-73
2022/05/01 04:20:16;;;;;;;;;;;1.30;99.90;;;;;;4907032;29;20314;-73
2022/05/01 04:22:42;;;;;;;;;;;1.30;99.90;;;;;;4920040;29;20248;-73
2022/05/01 04:25:18;;;;;;;;;;;1.30;99.90;;;;;;4919771;29;19933;-73
2022/05/01 04:27:45;;;;;;;;;;;1.30;99.90;;;;;;4919335;29;19970;-72
2022/05/01 04:30:12;;;;;;;;;;;1.30;99.90;;;;;;4919438;29;20005;-73
2022/05/01 04:32:49;;;;;;;;;;;1.30;99.90;;;;;;4920834;29;20387;-73
2022/05/01 04:35:28;;;;;;;;;;;1.30;99.90;;;;;;4919457;29;20386;-73
2022/05/01 04:37:59;;;;;;;;;;;1.30;99.90;;;;;;4918923;29;20353;-73
2022/05/01 04:40:26;;;;;;;;;;;1.40;99.90;;;;;;4916820;29;19970;-73
2022/05/01 04:42:51;;;;;;;;;;;1.40;99.90;;;;;;4916459;29;19919;-73
2022/05/01 04:45:17;;;;;;;;;;;1.40;99.90;;;;;;4919912;29;19934;-73
2022/05/01 04:47:43;;;;;;;;;;;1.50;99.90;;;;;;4916145;29;20114;-73
2022/05/01 04:50:09;;;;;;;;;;;1.50;99.90;;;;;;4917529;29;19919;-73
2022/05/01 04:52:35;;;;;;;;;;;1.60;99.90;;;;;;4919662;29;20338;-73
2022/05/01 04:55:01;;;;;;;;;;;1.60;99.90;;;;;;4903981;29;19918;-73
2022/05/01 04:57:26;;;;;;;;;;;1.60;99.90;;;;;;4919365;29;19930;-73
2022/05/01 04:59:52;;;;;;;;;;;1.70;99.90;;;;;;4919314;29;19922;-73
2022/05/01 05:02:17;;;;;;;;;;;1.70;99.90;;;;;;4919452;29;19927;-73
2022/05/01 05:04:43;;;;;;;;;;;1.80;99.90;;;;;;4915169;29;20395;-73
2022/05/01 05:07:09;;;;;;;;;;;1.90;99.90;;;;;;4917232;29;19930;-73
2022/05/01 05:12:19;;;;;;;;;;;2.10;99.90;;;;;;4918837;29;19978;-73
2022/05/01 05:14:46;;;;;;;;;;;2.20;99.90;;;;;;4919767;29;19918;-73
2022/05/01 05:17:11;;;;;;;;;;;2.30;99.90;;;;;;4919115;29;20260;-71
2022/05/01 05:19:37;;;;;;;;;;;2.50;99.90;;;;;;4918799;29;20058;-73
2022/05/01 05:22:03;;;;;;;;;;;2.70;99.90;;;;;;4918928;29;19977;-73
2022/05/01 05:24:29;;;;;;;;;;;2.70;99.90;;;;;;4918203;29;19922;-73
2022/05/01 05:26:54;;;;;;;;;;;2.90;99.90;;;;;;4918097;29;19930;-73
2022/05/01 05:29:20;;;;;;;;;;;3.10;99.90;;;;;;4918610;29;19923;-74
2022/05/01 05:31:46;;;;;;;;;;;3.20;99.90;;;;;;4918696;29;19922;-72
2022/05/01 05:34:11;;;;;;;;;;;3.40;99.90;;;;;;4917817;29;20013;-72
2022/05/01 05:36:37;;;;;;;;;;;3.60;99.90;;;;;;4902793;29;19987;-72
2022/05/01 05:39:02;;;;;;;;;;;3.80;99.90;;;;;;4902675;29;20393;-72
2022/05/01 05:41:28;;;;;;;;;;;3.90;99.90;;;;;;4918415;29;20018;-71
2022/05/01 05:43:54;;;;;;;;;;;4.10;99.90;;;;;;4902859;29;20525;-72
2022/05/01 05:46:19;;;;;;;;;;;4.20;99.90;;;;;;4918065;29;19929;-72
2022/05/01 05:48:45;;;;;;;;;;;4.40;99.90;;;;;;4918140;29;19954;-72
2022/05/01 05:51:10;;;;;;;;;;;4.50;99.90;;;;;;4918217;29;19943;-72
2022/05/01 05:53:36;;;;;;;;;;;4.60;99.90;;;;;;4918319;29;19951;-72
2022/05/01 05:56:01;;;;;;;;;;;4.80;99.90;;;;;;4917988;29;19919;-72
2022/05/01 05:58:27;;;;;;;;;;;4.90;99.90;;;;;;4918124;29;20017;-72
2022/05/01 06:00:52;;;;;;;;;;;5.00;99.90;;;;;;4918605;29;20705;-72
2022/05/01 06:03:19;;;;;;;;;;;5.20;99.90;;;;;;4918239;29;19929;-72
2022/05/01 06:05:45;;;;;;;;;;;5.40;99.90;;;;;;4902187;29;19951;-72
2022/05/01 06:08:11;;;;;;;;;;;5.70;99.90;;;;;;4917715;29;19977;-72
2022/05/01 06:10:38;;;;;;;;;;;6.10;99.90;;;;;;4917775;29;20327;-72
2022/05/01 06:13:04;;;;;;;;;;;6.50;99.90;;;;;;4919470;29;19962;-73
2022/05/01 06:15:29;;;;;;;;;;;6.80;99.90;;;;;;4933883;29;19969;-72
2022/05/01 06:17:55;;;;;;;;;;;7.10;99.90;;;;;;4917402;29;20025;-74
2022/05/01 06:20:20;;;;;;;;;;;7.40;99.90;;;;;;4917414;29;19929;-73
2022/05/01 06:22:48;;;;;;;;;;;7.70;99.90;;;;;;4917850;29;19923;-73
2022/05/01 06:25:14;;;;;;;;;;;8.00;99.90;;;;;;4917129;29;20006;-72
2022/05/01 06:27:39;;;;;;;;;;;8.30;99.90;;;;;;4917600;29;20382;-70
2022/05/01 06:30:05;;;;;;;;;;;8.60;99.90;;;;;;4917987;29;19969;-73
2022/05/01 06:32:32;;;;;;;;;;;8.80;99.90;;;;;;4901701;29;20014;-73
2022/05/01 06:34:57;;;;;;;;;;;9.00;99.90;;;;;;4918064;29;20298;-73
2022/05/01 06:37:23;;;;;;;;;;;9.10;99.90;;;;;;4933846;29;19930;-73
2022/05/01 06:39:49;;;;;;;;;;;9.20;99.90;;;;;;4917531;29;20448;-73
2022/05/01 06:42:15;;;;;;;;;;;9.20;99.90;;;;;;4917387;29;19926;-73
2022/05/01 06:44:41;;;;;;;;;;;9.50;99.90;;;;;;4918430;29;19918;-73
2022/05/01 06:47:08;;;;;;;;;;;9.80;99.90;;;;;;4933223;29;19969;-73
2022/05/01 06:49:33;;;;;;;;;;;10.20;99.90;;;;;;4917270;29;19969;-73
2022/05/01 06:51:59;;;;;;;;;;;10.20;99.90;;;;;;4917014;29;19973;-71
2022/05/01 06:54:25;;;;;;;;;;;10.60;99.90;;;;;;4901553;29;19929;-74
2022/05/01 06:56:50;;;;;;;;;;;10.90;99.90;;;;;;4913416;29;20368;-74
2022/05/01 06:59:17;;;;;;;;;;;11.00;99.90;;;;;;4920609;29;20290;-74
2022/05/01 07:01:42;;;;;;;;;;;11.00;99.90;;;;;;4914763;29;19965;-74
2022/05/01 07:04:08;;;;;;;;;;;11.30;99.90;;;;;;4920499;29;19981;-74
2022/05/01 07:06:33;;;;;;;;;;;11.70;99.90;;;;;;4917193;29;19930;-74
2022/05/01 07:08:59;;;;;;;;;;;11.90;99.90;;;;;;4917506;29;19922;-71
2022/05/01 07:11:25;;;;;;;;;;;12.20;99.90;;;;;;4915808;29;20286;-73
2022/05/01 07:13:50;;;;;;;;;;;12.50;99.90;;;;;;4911762;29;19918;-71
2022/05/01 07:16:19;;;;;;;;;;;12.80;99.90;;;;;;4920327;29;20013;-71
2022/05/01 07:18:45;;;;;;;;;;;12.60;99.90;;;;;;4917065;29;19918;-71
2022/05/01 07:21:11;;;;;;;;;;;12.50;99.90;;;;;;4918900;29;19930;-71
2022/05/01 07:23:37;;;;;;;;;;;12.50;99.90;;;;;;4920797;29;20426;-74
2022/05/01 07:26:02;;;;;;;;;;;12.50;99.90;;;;;;4911361;29;20066;-75
2022/05/01 07:28:28;;;;;;;;;;;12.40;99.90;;;;;;4920412;29;19930;-73
2022/05/01 07:30:54;;;;;;;;;;;12.50;99.90;;;;;;4916841;29;19923;-73
2022/05/01 07:33:19;;;;;;;;;;;12.60;99.90;;;;;;4917137;29;19926;-74
2022/05/01 07:35:46;;;;;;;;;;;12.40;99.90;;;;;;4917320;29;20010;-74
2022/05/01 07:38:11;;;;;;;;;;;11.90;99.90;;;;;;4917771;29;19998;-74
2022/05/01 07:40:37;;;;;;;;;;;11.90;99.90;;;;;;4901709;29;20382;-74
2022/05/01 07:43:03;;;;;;;;;;;11.90;99.90;;;;;;4901714;29;19922;-74
2022/05/01 07:45:29;;;;;;;;;;;11.80;99.90;;;;;;4916952;29;20002;-74
2022/05/01 07:47:54;;;;;;;;;;;12.10;99.90;;;;;;4917252;29;19978;-74
2022/05/01 07:50:20;;;;;;;;;;;12.20;99.90;;;;;;4920955;29;19923;-74
2022/05/01 07:52:46;;;;;;;;;;;12.50;99.90;;;;;;4921108;29;19926;-74
2022/05/01 07:55:11;;;;;;;;;;;12.50;99.90;;;;;;4920752;29;20351;-74
2022/05/01 07:57:37;;;;;;;;;;;12.50;99.90;;;;;;4936336;29;19971;-74
2022/05/01 08:00:04;;;;;;;;;;;12.50;99.90;;;;;;4923872;29;20059;-74
2022/05/01 08:02:34;;;;;;;;;;;12.70;99.90;;;;;;4904248;29;20271;-74
2022/05/01 08:04:59;;;;;;;;;;;13.30;99.90;;;;;;4920810;29;19922;-74
2022/05/01 08:07:25;;;;;;;;;;;13.50;99.90;;;;;;4907785;29;19930;-73
2022/05/01 08:09:51;;;;;;;;;;;13.50;99.90;;;;;;4917518;29;19919;-74
2022/05/01 08:12:16;;;;;;;;;;;13.40;99.90;;;;;;4920563;29;19923;-74
2022/05/01 08:14:44;;;;;;;;;;;13.20;99.90;;;;;;4919752;29;20401;-74
2022/05/01 08:17:09;;;;;;;;;;;12.70;98.60;;;;;;4904725;29;19926;-73
2022/05/01 08:22:19;;;;;;;;;;;12.30;99.90;;;;;;4918125;29;19945;-73
2022/05/01 08:24:45;;;;;;;;;;;12.20;99.90;;;;;;4923025;29;19922;-74
2022/05/01 08:27:10;;;;;;;;;;;12.00;99.90;;;;;;4919387;29;20378;-73
2022/05/01 08:29:39;;;;;;;;;;;11.80;99.90;;;;;;4919840;29;19919;-73
2022/05/01 08:32:05;;;;;;;;;;;11.60;99.90;;;;;;4921137;29;19925;-72
2022/05/01 08:34:31;;;;;;;;;;;11.40;99.90;;;;;;4907748;29;20013;-73
2022/05/01 08:36:56;;;;;;;;;;;11.40;99.90;;;;;;4919794;29;20331;-72
2022/05/01 08:39:22;;;;;;;;;;;11.40;99.90;;;;;;4915151;29;19930;-71
2022/05/01 08:41:48;;;;;;;;;;;11.60;99.90;;;;;;4919541;29;19969;-72
2022/05/01 08:44:16;;;;;;;;;;;11.80;99.90;;;;;;4916972;29;19919;-72
2022/05/01 08:46:50;;;;;;;;;;;11.90;99.90;;;;;;4918616;29;19918;-72
2022/05/01 08:49:17;;;;;;;;;;;12.20;99.90;;;;;;4923302;29;19919;-73
2022/05/01 08:51:43;;;;;;;;;;;12.30;99.90;;;;;;4932135;29;20374;-73
2022/05/01 08:54:13;;;;;;;;;;;12.70;99.90;;;;;;4934588;29;19919;-74
2022/05/01 08:56:41;;;;;;;;;;;13.00;99.70;;;;;;4938132;29;20386;-74
2022/05/01 08:59:09;;;;;;;;;;;12.90;95.90;;;;;;4922404;29;19997;-73
2022/05/01 09:01:35;;;;;;;;;;;12.90;97.20;;;;;;4937126;29;19922;-73
2022/05/01 09:04:02;;;;;;;;;;;13.30;99.90;;;;;;4938049;29;19919;-73
2022/05/01 09:06:27;;;;;;;;;;;13.60;98.90;;;;;;4938048;29;19922;-73
2022/05/01 09:08:53;;;;;;;;;;;13.70;96.20;;;;;;4938101;29;19926;-73
2022/05/01 09:14:04;;;;;;;;;;;13.90;96.50;;;;;;4919003;29;19927;-73
2022/05/01 09:16:29;;;;;;;;;;;14.20;97.10;;;;;;4919054;29;20029;-74
2022/05/01 09:18:55;;;;;;;;;;;14.30;97.00;;;;;;4918780;29;19975;-74
2022/05/01 09:21:21;;;;;;;;;;;14.70;96.60;;;;;;4918757;29;19918;-74
2022/05/01 09:23:47;;;;;;;;;;;14.40;95.10;;;;;;4919222;29;20022;-73
2022/05/01 09:26:13;;;;;;;;;;;14.00;95.30;;;;;;4918623;29;20375;-72
2022/05/01 09:28:50;;;;;;;;;;;13.90;96.30;;;;;;4918363;29;20275;-73
2022/05/01 09:31:16;;;;;;;;;;;13.90;95.20;;;;;;4918893;29;19923;-73
2022/05/01 09:33:41;;;;;;;;;;;14.00;97.70;;;;;;4918551;29;20384;-72
2022/05/01 09:36:08;;;;;;;;;;;14.10;96.80;;;;;;4935912;29;19923;-72
2022/05/01 09:38:34;;;;;;;;;;;13.80;96.30;;;;;;4941467;29;19922;-73
2022/05/01 09:41:01;;;;;;;;;;;14.00;95.90;;;;;;4932129;29;19986;-74
2022/05/01 09:43:43;;;;;;;;;;;13.90;96.00;;;;;;4926358;29;19918;-73
2022/05/01 09:46:13;;;;;;;;;;;14.00;96.00;;;;;;4922052;29;19973;-72
2022/05/01 09:48:39;;;;;;;;;;;14.00;95.40;;;;;;4923202;29;20382;-74
2022/05/01 09:51:15;;;;;;;;;;;13.50;95.80;;;;;;4920469;29;20087;-74
2022/05/01 09:53:42;;;;;;;;;;;13.50;97.60;;;;;;4903225;29;19947;-74
2022/05/01 09:56:07;;;;;;;;;;;13.80;98.70;;;;;;4918266;29;20013;-74
2022/05/01 09:58:33;;;;;;;;;;;14.00;96.40;;;;;;4917448;29;20002;-74
2022/05/01 10:01:06;;;;;;;;;;;13.40;96.90;;;;;;4917445;29;19922;-74
2022/05/01 10:03:32;;;;;;;;;;;13.80;98.40;;;;;;4900359;29;19973;-74
2022/05/01 10:05:59;;;;;;;;;;;13.80;97.50;;;;;;4915486;29;19922;-74
2022/05/01 10:08:25;;;;;;;;;;;13.60;96.90;;;;;;4917225;29;19931;-74
2022/05/01 10:10:52;;;;;;;;;;;13.90;96.80;;;;;;4917387;29;20230;-74
2022/05/01 10:13:18;;;;;;;;;;;14.20;97.30;;;;;;4916994;29;19927;-74
2022/05/01 10:15:45;;;;;;;;;;;14.30;95.80;;;;;;4916961;29;20045;-74
2022/05/01 10:18:11;;;;;;;;;;;14.40;95.10;;;;;;4917290;29;20013;-74
2022/05/01 10:20:37;;;;;;;;;;;14.00;95.20;;;;;;4933005;29;20393;-74
2022/05/01 10:23:03;;;;;;;;;;;13.40;95.00;;;;;;4911843;29;19979;-74
2022/05/01 10:25:33;;;;;;;;;;;13.40;94.90;;;;;;4917924;29;19933;-75
2022/05/01 10:28:05;;;;;;;;;;;13.70;95.60;;;;;;4917883;29;19922;-74
2022/05/01 10:33:55;;;;;;;;;;;13.40;94.60;;;;;;4918394;29;20298;-75
2022/05/01 10:36:29;;;;;;;;;;;13.20;95.00;;;;;;4860356;29;19963;-75
2022/05/01 10:39:01;;;;;;;;;;;13.30;95.30;;;;;;4909328;29;19918;-75
2022/05/01 10:41:28;;;;;;;;;;;13.50;95.40;;;;;;4918016;29;20362;-75
2022/05/01 10:43:55;;;;;;;;;;;13.70;95.90;;;;;;4917722;29;19919;-75
2022/05/01 10:46:21;;;;;;;;;;;14.00;95.40;;;;;;4917745;29;19918;-75
2022/05/01 10:48:47;;;;;;;;;;;14.70;94.60;;;;;;4901507;29;20434;-75
2022/05/01 10:51:36;;;;;;;;;;;15.10;93.90;;;;;;4933109;29;20374;-75
2022/05/01 10:54:17;;;;;;;;;;;15.20;93.00;;;;;;4917397;29;19922;-75
2022/05/01 10:56:44;;;;;;;;;;;14.80;93.10;;;;;;4917179;29;19930;-75
2022/05/01 10:59:33;;;;;;;;;;;15.20;94.00;;;;;;4917533;29;20326;-74
2022/05/01 11:02:00;;;;;;;;;;;15.20;93.80;;;;;;4907810;29;19965;-74
2022/05/01 11:04:38;;;;;;;;;;;15.50;92.90;;;;;;4917602;29;19919;-74
2022/05/01 11:07:04;;;;;;;;;;;14.90;92.50;;;;;;4916472;29;19923;-74
2022/05/01 11:09:32;;;;;;;;;;;15.30;94.10;;;;;;4916922;29;19933;-74
2022/05/01 11:11:58;;;;;;;;;;;14.90;92.10;;;;;;4901660;29;19922;-74
2022/05/01 11:14:35;;;;;;;;;;;14.80;93.00;;;;;;4917423;29;20385;-75
2022/05/01 11:17:01;;;;;;;;;;;14.80;92.60;;;;;;4929438;29;19924;-74
2022/05/01 11:19:34;;;;;;;;;;;14.70;92.10;;;;;;4916288;29;19919;-74
2022/05/01 11:22:06;;;;;;;;;;;14.50;92.20;;;;;;4916301;29;19926;-75
2022/05/01 11:24:42;;;;;;;;;;;14.20;92.40;;;;;;4918738;29;19961;-74
2022/05/01 11:27:13;;;;;;;;;;;14.50;93.00;;;;;;4920692;29;19934;-75
2022/05/01 11:29:39;;;;;;;;;;;14.60;94.20;;;;;;4936946;29;20018;-75
2022/05/01 11:32:25;;;;;;;;;;;14.80;94.10;;;;;;4921052;29;20005;-75
2022/05/01 11:34:54;;;;;;;;;;;14.50;92.80;;;;;;4919627;29;20297;-74
2022/05/01 11:37:21;;;;;;;;;;;14.30;93.20;;;;;;4935923;29;20285;-75
2022/05/01 11:39:50;;;;;;;;;;;14.40;92.90;;;;;;4904155;29;19961;-75
2022/05/01 11:42:31;;;;;;;;;;;14.50;92.70;;;;;;4952257;29;19922;-75
2022/05/01 11:44:57;;;;;;;;;;;14.60;92.90;;;;;;4904509;29;19922;-75
2022/05/01 11:47:24;;;;;;;;;;;14.80;92.80;;;;;;4903594;29;19922;-75
2022/05/01 11:49:52;;;;;;;;;;;15.10;93.60;;;;;;4918384;29;19930;-74
2022/05/01 11:52:19;;;;;;;;;;;15.40;93.50;;;;;;4906877;29;19934;-75
2022/05/01 11:54:50;;;;;;;;;;;15.60;92.80;;;;;;4918100;29;19922;-75
2022/05/01 12:03:21;;;;;;;;;;;15.80;91.10;;;;;;4920164;29;20001;-75
2022/05/01 12:05:47;;;;;;;;;;;15.50;91.00;;;;;;4915298;29;20017;-74
2022/05/01 12:08:14;;;;;;;;;;;15.50;90.50;;;;;;4920398;29;20392;-74
2022/05/01 12:10:43;;;;;;;;;;;14.80;89.10;;;;;;4920300;29;20366;-75
2022/05/01 12:13:18;;;;;;;;;;;15.20;90.70;;;;;;4920390;29;19927;-75
2022/05/01 12:15:44;;;;;;;;;;;15.50;90.10;;;;;;4920361;29;20362;-74
2022/05/01 12:18:09;;;;;;;;;;;15.60;87.80;;;;;;4920237;29;19926;-75
2022/05/01 12:20:35;;;;;;;;;;;15.30;90.40;;;;;;4919167;29;19925;-75
2022/05/01 12:23:00;;;;;;;;;;;16.00;89.20;;;;;;4948261;29;19930;-74
2022/05/01 12:25:26;;;;;;;;;;;16.50;89.00;;;;;;4913602;29;19969;-74
2022/05/01 12:27:52;;;;;;;;;;;16.90;88.60;;;;;;4918938;29;19926;-74
2022/05/01 12:30:21;;;;;;;;;;;17.00;83.70;;;;;;4918996;29;19926;-74
2022/05/01 12:32:54;;;;;;;;;;;17.00;86.80;;;;;;4934841;29;19974;-74
2022/05/01 12:35:19;;;;;;;;;;;16.80;85.80;;;;;;4934372;29;19925;-74
2022/05/01 12:37:48;;;;;;;;;;;16.80;84.80;;;;;;4904254;29;19922;-74
2022/05/01 12:40:14;;;;;;;;;;;16.60;84.60;;;;;;4904279;29;20001;-74
2022/05/01 12:45:38;;;;;;;;;;;16.80;85.70;;;;;;4919837;29;19929;-75
2022/05/01 12:48:04;;;;;;;;;;;16.30;79.30;;;;;;4919814;29;19922;-75
2022/05/01 12:50:31;;;;;;;;;;;16.00;81.60;;;;;;4918776;29;20336;-75
2022/05/01 12:53:01;;;;;;;;;;;16.10;83.80;;;;;;4918742;29;19918;-75
2022/05/01 12:55:30;;;;;;;;;;;15.90;80.70;;;;;;4916502;29;19923;-75
2022/05/01 12:57:57;;;;;;;;;;;15.80;83.00;;;;;;4918874;29;19925;-75
2022/05/01 13:00:29;;;;;;;;;;;15.60;83.30;;;;;;4934630;29;20288;-75
2022/05/01 13:03:13;;;;;;;;;;;15.80;83.50;;;;;;4902655;29;20005;-75
2022/05/01 13:05:39;;;;;;;;;;;15.60;83.50;;;;;;4913293;29;20273;-75
2022/05/01 13:08:15;;;;;;;;;;;15.40;86.60;;;;;;4902203;29;19927;-76
2022/05/01 13:10:41;;;;;;;;;;;15.60;87.90;;;;;;4915474;29;20001;-75
2022/05/01 13:13:06;;;;;;;;;;;15.70;87.60;;;;;;4913479;29;20078;-76
2022/05/01 13:15:35;;;;;;;;;;;15.60;89.10;;;;;;4907613;29;19996;-75
2022/05/01 13:18:01;;;;;;;;;;;15.50;90.20;;;;;;4918147;29;19922;-75
2022/05/01 13:20:27;;;;;;;;;;;15.80;90.70;;;;;;4919138;29;19974;-75
2022/05/01 13:22:53;;;;;;;;;;;16.00;90.00;;;;;;4919690;29;20016;-75
2022/05/01 13:25:18;;;;;;;;;;;16.20;88.80;;;;;;4918957;29;20492;-75
2022/05/01 13:27:44;;;;;;;;;;;16.60;90.00;;;;;;4919010;29;19974;-75
2022/05/01 13:30:10;;;;;;;;;;;17.00;90.20;;;;;;4903410;29;20342;-75
2022/05/01 13:32:35;;;;;;;;;;;17.40;88.20;;;;;;4915666;29;19971;-75
2022/05/01 13:35:01;;;;;;;;;;;17.60;85.40;;;;;;4900892;29;19919;-75
2022/05/01 13:37:26;;;;;;;;;;;17.60;84.60;;;;;;4918369;29;20001;-75
2022/05/01 13:45:21;;;;;;;;;;;17.60;81.70;;;;;;4918533;29;19923;-75
2022/05/01 13:47:48;;;;;;;;;;;17.30;78.10;;;;;;4918452;29;20013;-75
2022/05/01 13:50:13;;;;;;;;;;;18.00;81.40;;;;;;4934274;29;20289;-75
2022/05/01 13:52:39;;;;;;;;;;;17.80;78.50;;;;;;4919041;29;19919;-75
2022/05/01 13:55:04;;;;;;;;;;;17.90;77.50;;;;;;4918612;29;20384;-75
2022/05/01 13:57:31;;;;;;;;;;;17.70;76.70;;;;;;4917839;29;20026;-75
2022/05/01 13:59:57;;;;;;;;;;;17.60;76.00;;;;;;4917391;29;19929;-75
2022/05/01 14:02:22;;;;;;;;;;;17.50;75.00;;;;;;4945922;29;19922;-75
2022/05/01 14:04:48;;;;;;;;;;;17.30;76.10;;;;;;4917655;29;20286;-77
2022/05/01 14:07:17;;;;;;;;;;;17.50;79.50;;;;;;4901207;29;20002;-76
2022/05/01 14:09:43;;;;;;;;;;;17.30;79.40;;;;;;4917879;29;19922;-79
2022/05/01 14:12:09;;;;;;;;;;;17.40;79.00;;;;;;4915440;29;20367;-79
2022/05/01 14:14:35;;;;;;;;;;;17.20;81.40;;;;;;4913395;29;20009;-79
2022/05/01 14:17:01;;;;;;;;;;;17.20;84.90;;;;;;4914687;29;19934;-80
2022/05/01 14:19:28;;;;;;;;;;;16.60;86.10;;;;;;4916450;29;19943;-81
2022/05/01 14:21:55;;;;;;;;;;;16.30;90.50;;;;;;4933118;29;20074;-80
2022/05/01 14:24:21;;;;;;;;;;;16.40;90.90;;;;;;4914872;29;19974;-77
2022/05/01 14:26:47;;;;;;;;;;;16.40;90.20;;;;;;4899992;29;19993;-76
2022/05/01 14:29:12;;;;;;;;;;;16.40;90.30;;;;;;4918059;29;19945;-75
2022/05/01 14:31:41;;;;;;;;;;;16.30;90.10;;;;;;4917082;29;20061;-76
2022/05/01 14:34:15;;;;;;;;;;;16.30;90.50;;;;;;4916823;29;20386;-76
2022/05/01 14:36:47;;;;;;;;;;;16.10;90.30;;;;;;4915735;29;20036;-76
2022/05/01 14:39:13;;;;;;;;;;;15.90;90.60;;;;;;4896149;29;19978;-76
2022/05/01 14:41:38;;;;;;;;;;;15.50;90.70;;;;;;4900478;29;19918;-76
2022/05/01 14:44:05;;;;;;;;;;;15.10;91.70;;;;;;4901933;29;19930;-77
2022/05/01 14:46:36;;;;;;;;;;;15.10;91.90;;;;;;4917089;29;19933;-76
2022/05/01 14:49:10;;;;;;;;;;;14.90;92.30;;;;;;4917368;29;19923;-76
2022/05/01 14:51:38;;;;;;;;;;;14.80;93.00;;;;;;4917000;29;20054;-76
2022/05/01 14:54:04;;;;;;;;;;;15.10;93.10;;;;;;4916825;29;19926;-76
2022/05/01 14:56:30;;;;;;;;;;;15.80;92.90;;;;;;4916538;29;19926;-77
2022/05/01 15:07:27;;;;;;;;;;;16.90;90.80;;;;;;4917088;29;20375;-76